Anthem Of The Seas — C6BI7 — position and weather

sailwx.info

Track history (hours):
 
Tides and Currents Weather Stations Pressure Air Temp Water Temp Dewpoint Dewpoint Depression Visibility Wind Speed Wind Dir Waves Ship Positions

Anthem Of The Seas

Last reported at 2018-Nov-12 04:00 UTC. Time now 2018-Nov-13 07:11 UTC.
Position N 33°48' W 066°06'.

Length 348 m; draft 8.8 m.

Type: Passenger vessel. MMSI: 311000274.

Wind from 360 at 23 knots

Barometer 1023.5 mb
Air temperature 21.0 ° C
Dewpoint 16.5 ° C
Water temperature 25.0 ° C

Date/timePositionNaut miles runAvg speedWind from/ knotsBaromVisibWave heightAir tempDewpointWater temp
2018-Nov-12 04:00N 33°48' W 066°06'37418.7 360 / 231023.5 21.016.525.0
2018-Nov-11 08:00N 38°24' W 071°18'16816.1 330 / 221024.6 11.0 4.718.3
2018-Nov-10 21:34N 40°25' W 073°48'210.9
2018-Nov-10 21:25N 40°26' W 073°49'513.0
2018-Nov-10 21:02N 40°29' W 073°55'816.5
2018-Nov-10 20:32N 40°35' W 074°02'5 7.9
2018-Nov-10 19:55N 40°40' W 074°04'0 0.0
2018-Nov-10 19:31N 40°40' W 074°04'0 0.0
2018-Nov-10 19:01N 40°40' W 074°04'0 0.0
2018-Nov-10 18:31N 40°40' W 074°04'0 0.0
2018-Nov-10 18:01N 40°40' W 074°04'0 0.0
2018-Nov-10 17:31N 40°40' W 074°04'0 0.0
2018-Nov-10 17:01N 40°40' W 074°04'0 0.0
2018-Nov-10 16:31N 40°40' W 074°04'0 0.0
2018-Nov-10 16:01N 40°40' W 074°04'0 0.0
2018-Nov-10 15:31N 40°40' W 074°04'0 0.0
2018-Nov-10 15:01N 40°40' W 074°04'0 0.0
2018-Nov-10 14:31N 40°40' W 074°04'0 0.0
2018-Nov-10 14:01N 40°40' W 074°04'0 0.0
2018-Nov-10 13:31N 40°40' W 074°04'0 0.0
2018-Nov-10 13:01N 40°40' W 074°04'0 0.0
2018-Nov-10 12:31N 40°40' W 074°04'0 0.0
2018-Nov-10 12:01N 40°40' W 074°04'0 0.0
2018-Nov-10 11:31N 40°40' W 074°04'0 0.0
2018-Nov-10 11:02N 40°40' W 074°04'1 1.7
2018-Nov-10 10:33N 40°39' W 074°03'5 9.7
2018-Nov-10 10:03N 40°35' W 074°02'714.1
2018-Nov-10 09:32N 40°30' W 073°56'612.3
2018-Nov-10 09:02N 40°28' W 073°48'3 6.7
2018-Nov-10 08:32N 40°26' W 073°44'4 8.8
2018-Nov-10 08:01N 40°28' W 073°38'5 9.8
2018-Nov-10 07:32N 40°28' W 073°32'12911.2
2018-Nov-09 20:00N 40°30' W 070°42'74 8.3 110 / 201022.1 15.010.715.4
2018-Nov-09 11:00N 41°00' W 069°12'4010.1 040 / 241026.610.8 13.0 12.0
2018-Nov-09 07:00N 41°36' W 069°36'4712.9 360 / 171026.6 13.0 5.012.0
2018-Nov-09 03:23N 42°17' W 070°05'511.3
2018-Nov-09 02:58N 42°18' W 070°11'511.1
2018-Nov-09 02:31N 42°18' W 070°18'510.9
2018-Nov-09 02:03N 42°19' W 070°25'611.1
2018-Nov-09 01:31N 42°19' W 070°33'511.0
2018-Nov-09 01:03N 42°20' W 070°40'611.1
2018-Nov-09 00:32N 42°22' W 070°47'510.4
2018-Nov-09 00:03N 42°23' W 070°54'510.4
2018-Nov-08 23:33N 42°20' W 070°60'1 2.6
2018-Nov-08 23:00N 42°21' W 071°02'0 0.0
2018-Nov-08 22:30N 42°21' W 071°02'0 0.0
2018-Nov-08 22:00N 42°21' W 071°02'0 0.0
2018-Nov-08 21:30N 42°21' W 071°02'0 0.0
2018-Nov-08 21:00N 42°21' W 071°02'0 0.0
2018-Nov-08 20:30N 42°21' W 071°02'0 0.0
2018-Nov-08 20:00N 42°21' W 071°02'0 0.0
2018-Nov-08 19:27N 42°21' W 071°02'0 0.0
2018-Nov-08 19:00N 42°21' W 071°02'0 0.0
2018-Nov-08 18:30N 42°21' W 071°02'0 0.0
2018-Nov-08 17:57N 42°21' W 071°02'0 0.0
2018-Nov-08 17:27N 42°21' W 071°02'0 0.0
2018-Nov-08 16:57N 42°21' W 071°02'0 0.0
2018-Nov-08 16:27N 42°21' W 071°02'0 0.0
2018-Nov-08 16:00N 42°21' W 071°02'0 0.0
2018-Nov-08 15:30N 42°21' W 071°02'0 0.0
2018-Nov-08 15:00N 42°21' W 071°02'0 0.0
2018-Nov-08 14:27N 42°21' W 071°02'0 0.0
2018-Nov-08 14:00N 42°21' W 071°02'0 0.0
2018-Nov-08 13:30N 42°21' W 071°02'0 0.0
2018-Nov-08 13:00N 42°21' W 071°02'0 0.0
2018-Nov-08 12:27N 42°21' W 071°02'0 0.0
2018-Nov-08 12:00N 42°21' W 071°02'0 0.6
2018-Nov-08 11:32N 42°21' W 071°01'4 7.1
2018-Nov-08 11:03N 42°20' W 070°57'510.6
2018-Nov-08 10:32N 42°24' W 070°51'612.1
2018-Nov-08 10:03N 42°23' W 070°43'815.6
2018-Nov-08 09:32N 42°22' W 070°33'816.5
2018-Nov-08 09:02N 42°21' W 070°21'918.5
2018-Nov-08 08:32N 42°20' W 070°09'817.0
2018-Nov-08 08:02N 42°17' W 069°58'816.0
2018-Nov-08 07:32N 42°10' W 069°53'37219.1
2018-Nov-07 12:00N 36°30' W 066°36'8414.0 220 / 361018.310.8 26.0 26.0
2018-Nov-07 06:00N 37°42' W 065°42'   220 / 221020.2 25.023.324.8
2018-Nov-04 10:13N 51°54' E 004°13'3316241.8
2018-Nov-03 20:30N 40°28' W 073°52'510.3
2018-Nov-03 20:04N 40°30' W 073°57'113.7
2018-Nov-03 20:01N 40°31' W 073°58'714.6
2018-Nov-03 19:31N 40°37' W 074°03'3 6.7
2018-Nov-03 19:02N 40°40' W 074°04'0 0.0
2018-Nov-03 18:59N 40°40' W 074°04'0 0.0
2018-Nov-03 18:29N 40°40' W 074°04'0 0.0
2018-Nov-03 18:02N 40°40' W 074°04'0 0.0
2018-Nov-03 17:59N 40°40' W 074°04'0 0.0
2018-Nov-03 17:29N 40°40' W 074°04'0 0.0
2018-Nov-03 17:02N 40°40' W 074°04'0 0.0
2018-Nov-03 16:59N 40°40' W 074°04'0 0.0
2018-Nov-03 16:29N 40°40' W 074°04'0 0.0
2018-Nov-03 16:02N 40°40' W 074°04'0 0.0
2018-Nov-03 15:59N 40°40' W 074°04'0 0.0
2018-Nov-03 15:29N 40°40' W 074°04'0 0.0
2018-Nov-03 15:02N 40°40' W 074°04'0 0.0
2018-Nov-03 14:59N 40°40' W 074°04'0 0.0
2018-Nov-03 14:29N 40°40' W 074°04'0 0.0
2018-Nov-03 14:02N 40°40' W 074°04'0 0.0
2018-Nov-03 13:59N 40°40' W 074°04'0 0.0
2018-Nov-03 13:29N 40°40' W 074°04'0 0.0
2018-Nov-03 13:02N 40°40' W 074°04'0 0.0
2018-Nov-03 12:59N 40°40' W 074°04'0 0.0
2018-Nov-03 12:29N 40°40' W 074°04'0 0.0
2018-Nov-03 12:02N 40°40' W 074°04'0 0.0
2018-Nov-03 11:59N 40°40' W 074°04'0 0.0
2018-Nov-03 11:29N 40°40' W 074°04'0 0.0
2018-Nov-03 11:02N 40°40' W 074°04'0 0.0
2018-Nov-03 10:59N 40°40' W 074°04'0 0.0
2018-Nov-03 10:29N 40°40' W 074°04'0 0.0
2018-Nov-03 10:03N 40°40' W 074°04'0 0.0
2018-Nov-03 10:00N 40°40' W 074°04'1 2.9
2018-Nov-03 09:30N 40°39' W 074°03'715.9
2018-Nov-03 09:03N 40°32' W 074°01'117.1
2018-Nov-03 09:00N 40°31' W 073°60'612.2
2018-Nov-03 08:30N 40°28' W 073°53'4 9.6
2018-Nov-03 08:02N 40°26' W 073°48'010.0
2018-Nov-03 08:00N 40°26' W 073°47'510.0
2018-Nov-03 07:30N 40°21' W 073°46'510.8
2018-Nov-03 06:59N 40°15' W 073°46'810.4
2018-Nov-03 06:12N 40°07' W 073°45'510.9
2018-Nov-03 05:46N 40°03' W 073°44'415.1
2018-Nov-03 05:30N 39°59' W 073°43'715.4
2018-Nov-03 05:03N 39°52' W 073°41'115.5
2018-Nov-03 05:00N 39°51' W 073°41'714.9
2018-Nov-03 04:30N 39°44' W 073°41'614.5
2018-Nov-03 04:04N 39°37' W 073°41'115.9
2018-Nov-03 04:01N 39°36' W 073°41'815.6
2018-Nov-03 03:30N 39°29' W 073°43'715.8
2018-Nov-03 03:04N 39°22' W 073°45'114.8
2018-Nov-03 03:00N 39°21' W 073°45'815.9
2018-Nov-03 02:30N 39°13' W 073°47'715.7
2018-Nov-03 02:03N 39°06' W 073°49'115.7
2018-Nov-03 01:59N 39°05' W 073°49'1215.4
2018-Nov-03 01:12N 38°53' W 073°52'215.3
2018-Nov-03 01:03N 38°51' W 073°53'115.4
2018-Nov-03 01:00N 38°50' W 073°53'815.5
2018-Nov-03 00:28N 38°42' W 073°55'1416.4
2018-Nov-02 23:36N 38°28' W 073°59'216.4
2018-Nov-02 23:28N 38°26' W 073°59'1616.5
2018-Nov-02 22:29N 38°10' W 074°03'916.5
2018-Nov-02 21:55N 38°01' W 074°06'  
Track history (hours):
 
Tides and Currents Weather Stations Pressure Air Temp Water Temp Dewpoint Dewpoint Depression Visibility Wind Speed Wind Dir Waves Ship Positions

Anthem Of The Seas

Last reported at 2018-Nov-12 04:00 UTC. Time now 2018-Nov-13 07:11 UTC.
Position N 33°48' W 066°06'.

Length 348 m; draft 8.8 m.

Type: Passenger vessel. MMSI: 311000274.

Wind from 360 at 23 knots

Barometer 1023.5 mb
Air temperature 21.0 ° C
Dewpoint 16.5 ° C
Water temperature 25.0 ° C

Date/timePositionNaut miles runAvg speedWind from/ knotsBaromVisibWave heightAir tempDewpointWater temp
2018-Nov-12 04:00N 33°48' W 066°06'37418.7 360 / 231023.5 21.016.525.0
2018-Nov-11 08:00N 38°24' W 071°18'16816.1 330 / 221024.6 11.0 4.718.3
2018-Nov-10 21:34N 40°25' W 073°48'210.9
2018-Nov-10 21:25N 40°26' W 073°49'513.0
2018-Nov-10 21:02N 40°29' W 073°55'816.5
2018-Nov-10 20:32N 40°35' W 074°02'5 7.9
2018-Nov-10 19:55N 40°40' W 074°04'0 0.0
2018-Nov-10 19:31N 40°40' W 074°04'0 0.0
2018-Nov-10 19:01N 40°40' W 074°04'0 0.0
2018-Nov-10 18:31N 40°40' W 074°04'0 0.0
2018-Nov-10 18:01N 40°40' W 074°04'0 0.0
2018-Nov-10 17:31N 40°40' W 074°04'0 0.0
2018-Nov-10 17:01N 40°40' W 074°04'0 0.0
2018-Nov-10 16:31N 40°40' W 074°04'0 0.0
2018-Nov-10 16:01N 40°40' W 074°04'0 0.0
2018-Nov-10 15:31N 40°40' W 074°04'0 0.0
2018-Nov-10 15:01N 40°40' W 074°04'0 0.0
2018-Nov-10 14:31N 40°40' W 074°04'0 0.0
2018-Nov-10 14:01N 40°40' W 074°04'0 0.0
2018-Nov-10 13:31N 40°40' W 074°04'0 0.0
2018-Nov-10 13:01N 40°40' W 074°04'0 0.0
2018-Nov-10 12:31N 40°40' W 074°04'0 0.0
2018-Nov-10 12:01N 40°40' W 074°04'0 0.0
2018-Nov-10 11:31N 40°40' W 074°04'0 0.0
2018-Nov-10 11:02N 40°40' W 074°04'1 1.7
2018-Nov-10 10:33N 40°39' W 074°03'5 9.7
2018-Nov-10 10:03N 40°35' W 074°02'714.1
2018-Nov-10 09:32N 40°30' W 073°56'612.3
2018-Nov-10 09:02N 40°28' W 073°48'3 6.7
2018-Nov-10 08:32N 40°26' W 073°44'4 8.8
2018-Nov-10 08:01N 40°28' W 073°38'5 9.8
2018-Nov-10 07:32N 40°28' W 073°32'12911.2
2018-Nov-09 20:00N 40°30' W 070°42'74 8.3 110 / 201022.1 15.010.715.4
2018-Nov-09 11:00N 41°00' W 069°12'4010.1 040 / 241026.610.8 13.0 12.0
2018-Nov-09 07:00N 41°36' W 069°36'4712.9 360 / 171026.6 13.0 5.012.0
2018-Nov-09 03:23N 42°17' W 070°05'511.3
2018-Nov-09 02:58N 42°18' W 070°11'511.1
2018-Nov-09 02:31N 42°18' W 070°18'510.9
2018-Nov-09 02:03N 42°19' W 070°25'611.1
2018-Nov-09 01:31N 42°19' W 070°33'511.0
2018-Nov-09 01:03N 42°20' W 070°40'611.1
2018-Nov-09 00:32N 42°22' W 070°47'510.4
2018-Nov-09 00:03N 42°23' W 070°54'510.4
2018-Nov-08 23:33N 42°20' W 070°60'1 2.6
2018-Nov-08 23:00N 42°21' W 071°02'0 0.0
2018-Nov-08 22:30N 42°21' W 071°02'0 0.0
2018-Nov-08 22:00N 42°21' W 071°02'0 0.0
2018-Nov-08 21:30N 42°21' W 071°02'0 0.0
2018-Nov-08 21:00N 42°21' W 071°02'0 0.0
2018-Nov-08 20:30N 42°21' W 071°02'0 0.0
2018-Nov-08 20:00N 42°21' W 071°02'0 0.0
2018-Nov-08 19:27N 42°21' W 071°02'0 0.0
2018-Nov-08 19:00N 42°21' W 071°02'0 0.0
2018-Nov-08 18:30N 42°21' W 071°02'0 0.0
2018-Nov-08 17:57N 42°21' W 071°02'0 0.0
2018-Nov-08 17:27N 42°21' W 071°02'0 0.0
2018-Nov-08 16:57N 42°21' W 071°02'0 0.0
2018-Nov-08 16:27N 42°21' W 071°02'0 0.0
2018-Nov-08 16:00N 42°21' W 071°02'0 0.0
2018-Nov-08 15:30N 42°21' W 071°02'0 0.0
2018-Nov-08 15:00N 42°21' W 071°02'0 0.0
2018-Nov-08 14:27N 42°21' W 071°02'0 0.0
2018-Nov-08 14:00N 42°21' W 071°02'0 0.0
2018-Nov-08 13:30N 42°21' W 071°02'0 0.0
2018-Nov-08 13:00N 42°21' W 071°02'0 0.0
2018-Nov-08 12:27N 42°21' W 071°02'0 0.0
2018-Nov-08 12:00N 42°21' W 071°02'0 0.6
2018-Nov-08 11:32N 42°21' W 071°01'4 7.1
2018-Nov-08 11:03N 42°20' W 070°57'510.6
2018-Nov-08 10:32N 42°24' W 070°51'612.1
2018-Nov-08 10:03N 42°23' W 070°43'815.6
2018-Nov-08 09:32N 42°22' W 070°33'816.5
2018-Nov-08 09:02N 42°21' W 070°21'918.5
2018-Nov-08 08:32N 42°20' W 070°09'817.0
2018-Nov-08 08:02N 42°17' W 069°58'816.0
2018-Nov-08 07:32N 42°10' W 069°53'37219.1
2018-Nov-07 12:00N 36°30' W 066°36'8414.0 220 / 361018.310.8 26.0 26.0
2018-Nov-07 06:00N 37°42' W 065°42'   220 / 221020.2 25.023.324.8
2018-Nov-04 10:13N 51°54' E 004°13'3316241.8
2018-Nov-03 20:30N 40°28' W 073°52'510.3
2018-Nov-03 20:04N 40°30' W 073°57'113.7
2018-Nov-03 20:01N 40°31' W 073°58'714.6
2018-Nov-03 19:31N 40°37' W 074°03'3 6.7
2018-Nov-03 19:02N 40°40' W 074°04'0 0.0
2018-Nov-03 18:59N 40°40' W 074°04'0 0.0
2018-Nov-03 18:29N 40°40' W 074°04'0 0.0
2018-Nov-03 18:02N 40°40' W 074°04'0 0.0
2018-Nov-03 17:59N 40°40' W 074°04'0 0.0
2018-Nov-03 17:29N 40°40' W 074°04'0 0.0
2018-Nov-03 17:02N 40°40' W 074°04'0 0.0
2018-Nov-03 16:59N 40°40' W 074°04'0 0.0
2018-Nov-03 16:29N 40°40' W 074°04'0 0.0
2018-Nov-03 16:02N 40°40' W 074°04'0 0.0
2018-Nov-03 15:59N 40°40' W 074°04'0 0.0
2018-Nov-03 15:29N 40°40' W 074°04'0 0.0
2018-Nov-03 15:02N 40°40' W 074°04'0 0.0
2018-Nov-03 14:59N 40°40' W 074°04'0 0.0
2018-Nov-03 14:29N 40°40' W 074°04'0 0.0
2018-Nov-03 14:02N 40°40' W 074°04'0 0.0
2018-Nov-03 13:59N 40°40' W 074°04'0 0.0
2018-Nov-03 13:29N 40°40' W 074°04'0 0.0
2018-Nov-03 13:02N 40°40' W 074°04'0 0.0
2018-Nov-03 12:59N 40°40' W 074°04'0 0.0
2018-Nov-03 12:29N 40°40' W 074°04'0 0.0
2018-Nov-03 12:02N 40°40' W 074°04'0 0.0
2018-Nov-03 11:59N 40°40' W 074°04'0 0.0
2018-Nov-03 11:29N 40°40' W 074°04'0 0.0
2018-Nov-03 11:02N 40°40' W 074°04'0 0.0
2018-Nov-03 10:59N 40°40' W 074°04'0 0.0
2018-Nov-03 10:29N 40°40' W 074°04'0 0.0
2018-Nov-03 10:03N 40°40' W 074°04'0 0.0
2018-Nov-03 10:00N 40°40' W 074°04'1 2.9
2018-Nov-03 09:30N 40°39' W 074°03'715.9
2018-Nov-03 09:03N 40°32' W 074°01'117.1
2018-Nov-03 09:00N 40°31' W 073°60'612.2
2018-Nov-03 08:30N 40°28' W 073°53'4 9.6
2018-Nov-03 08:02N 40°26' W 073°48'010.0
2018-Nov-03 08:00N 40°26' W 073°47'510.0
2018-Nov-03 07:30N 40°21' W 073°46'510.8
2018-Nov-03 06:59N 40°15' W 073°46'810.4
2018-Nov-03 06:12N 40°07' W 073°45'510.9
2018-Nov-03 05:46N 40°03' W 073°44'415.1
2018-Nov-03 05:30N 39°59' W 073°43'715.4
2018-Nov-03 05:03N 39°52' W 073°41'115.5
2018-Nov-03 05:00N 39°51' W 073°41'714.9
2018-Nov-03 04:30N 39°44' W 073°41'614.5
2018-Nov-03 04:04N 39°37' W 073°41'115.9
2018-Nov-03 04:01N 39°36' W 073°41'815.6
2018-Nov-03 03:30N 39°29' W 073°43'715.8
2018-Nov-03 03:04N 39°22' W 073°45'114.8
2018-Nov-03 03:00N 39°21' W 073°45'815.9
2018-Nov-03 02:30N 39°13' W 073°47'715.7
2018-Nov-03 02:03N 39°06' W 073°49'115.7
2018-Nov-03 01:59N 39°05' W 073°49'1215.4
2018-Nov-03 01:12N 38°53' W 073°52'215.3
2018-Nov-03 01:03N 38°51' W 073°53'115.4
2018-Nov-03 01:00N 38°50' W 073°53'815.5
2018-Nov-03 00:28N 38°42' W 073°55'1416.4
2018-Nov-02 23:36N 38°28' W 073°59'216.4
2018-Nov-02 23:28N 38°26' W 073°59'1616.5
2018-Nov-02 22:29N 38°10' W 074°03'916.5
2018-Nov-02 21:55N 38°01' W 074°06'  

Dump ship's entire track history